Latest Coastal Weather Observations for Geelong Racecourse

IDV60701

Issued at 2:51 pm EDT Monday 20 February 2017 (issued every 10 minutes, with the page automatically refreshed every 10 minutes)

About coastal observations | Map of coastal stations | Coastal observations for VIC | Marine services | Other Formats
Station Details ID: 087184 Name: GEELONG RACECOURSE Lat: -38.17 Lon: 144.38 Height: 12.9 m
Data from the previous 72 hours. | See also: Recent months at Geelong Racecourse
Date/Time
EDT
Temp
°C
Wind Pressure Rain since
9am
mm
Weather Cloud Vis
km
Sea
Height
m
Swell
Dir  Spd
kts
Gust
kts
hPa Trend Height
m
Period
s
Dir
20/02:30pm 19.7 WSW 13 21 1013.3 - 0.0 - - - - - - -
20/02:00pm 21.3 WSW 15 22 1013.3 - 0.0 - - - - - - -
20/01:30pm 20.6 WSW 15 23 1013.4 - 0.0 - - - - - - -
20/01:00pm 19.6 W 14 21 1013.4 - 0.0 - - - - - - -
20/12:30pm 20.2 WSW 13 19 1013.3 - 0.0 - - - - - - -
20/12:00pm 19.1 WSW 13 18 1013.4 - 0.0 - - - - - - -
20/11:30am 18.3 W 12 19 1013.5 - 0.0 - - - - - - -
20/11:00am 17.1 W 14 19 1013.6 - 0.0 - - - - - - -
20/10:30am 16.4 W 14 22 1013.6 - 0.0 - - - - - - -
20/10:00am 16.2 W 11 16 1013.4 - 0.0 - - - - - - -
20/09:30am 14.4 W 12 18 1013.1 - 0.0 - - - - - - -
20/09:00am 14.4 W 8 14 1012.7 - 3.8 - - - - - - -
20/08:30am 12.7 WNW 8 13 1012.3 - 3.8 - - - - - - -
20/08:00am 11.7 WNW 5 9 1012.1 - 3.8 - - - - - - -
20/07:30am 11.2 WNW 6 11 1011.6 - 3.8 - - - - - - -
20/07:00am 11.0 WNW 7 11 1011.2 - 3.8 - - - - - - -
20/06:30am 10.8 WNW 6 8 1011.1 - 3.8 - - - - - - -
20/06:00am 11.1 WNW 7 11 1010.8 - 3.8 Recent precip. - - - - - -
20/05:30am 11.1 WNW 7 12 1010.6 - 3.6 - - - - - - -
20/05:00am 11.0 W 8 10 1010.5 - 3.6 - - - - - - -
20/04:30am 10.8 W 7 12 1010.4 - 3.6 - - - - - - -
20/04:00am 10.6 WNW 9 15 1010.1 - 3.6 - - - - - - -
20/03:30am 10.7 WNW 10 16 1009.9 - 3.6 - - - - - - -
20/03:00am 10.8 WNW 9 13 1009.9 - 3.6 - - - - - - -
20/02:30am 11.0 WNW 8 12 1009.9 - 3.6 - - - - - - -
20/02:00am 10.9 WNW 7 11 1010.1 - 3.6 - - - - - - -
20/01:30am 10.6 WNW 7 12 1010.3 - 3.6 - - - - - - -
20/01:00am 10.6 WNW 10 15 1010.3 - 3.6 - - - - - - -
20/12:30am 10.7 WNW 8 12 1010.3 - 3.6 - - - - - - -
20/12:00am 11.0 WNW 8 14 1010.5 - 3.6 - - - - - - -
 
Date/Time
EDT
Temp
°C
Wind Pressure Rain since
9am
mm
Weather Cloud Vis
km
Sea
Height
m
Swell
Dir  Spd
kts
Gust
kts
hPa Trend Height
m
Period
s
Dir
19/11:30pm 10.9 WNW 8 12 1010.3 - 3.6 - - - - - - -
19/11:00pm 11.2 WNW 9 13 1010.5 - 3.6 - - - - - - -
19/10:30pm 11.4 WNW 7 11 1010.6 - 3.6 - - - - - - -
19/10:00pm 11.7 W 6 9 1010.5 - 3.6 - - - - - - -
19/09:30pm 11.9 W 6 8 1010.4 - 3.6 - - - - - - -
19/09:00pm 11.7 W 5 7 1010.2 - 3.6 - - - - - - -
19/08:30pm 11.8 WSW 5 7 1009.8 - 3.6 - - - - - - -
19/08:00pm 12.3 WSW 8 14 1009.3 - 3.6 - - - - - - -
19/07:30pm 12.9 W 8 15 1008.8 - 3.6 - - - - - - -
19/07:00pm 13.1 W 5 10 1008.7 - 3.6 - - - - - - -
19/06:30pm 12.7 WNW 3 5 1008.8 - 3.6 - - - - - - -
19/06:00pm 11.4 WSW 10 17 1009.0 - 3.0 Rain - - - - - -
19/05:30pm 13.9 W 9 16 1008.2 - 1.6 - - - - - - -
19/05:00pm 12.5 WNW 9 15 1008.3 - 1.6 - - - - - - -
19/04:30pm 13.3 WSW 14 20 1008.3 - 1.2 - - - - - - -
19/04:29pm 13.4 WSW 14 20 1008.2 - 1.2 - - - - - - -
19/04:00pm 18.6 W 15 23 1007.7 - 1.2 - - - - - - -
19/03:30pm 15.4 W 13 21 1007.8 - 1.2 - - - - - - -
19/03:00pm 16.6 WSW 14 20 1007.8 - 1.2 - - - - - - -
19/02:53pm 15.5 WSW 15 25 1008.0 - 1.2 - - - - - - -
19/02:30pm 16.1 W 10 17 1007.8 - 1.2 - - - - - - -
19/02:00pm 12.9 W 16 28 1008.4 - 1.2 - - - - - - -
19/01:59pm 13.1 W 15 28 1008.4 - 1.2 - - - - - - -
19/01:57pm 14.5 W 15 28 1008.3 - 1.2 - - - - - - -
19/01:30pm 14.5 WNW 8 13 1008.1 - 1.2 - - - - - - -
19/01:09pm 12.7 WNW 13 25 1009.4 - 0.2 - - - - - - -
19/01:00pm 14.8 NW 13 20 1008.8 - 0.0 - - - - - - -
19/12:30pm 15.1 NW 13 19 1008.9 - 0.0 - - - - - - -
19/12:00pm 14.7 NW 9 15 1009.3 - 0.0 - - - - - - -
19/11:30am 14.2 WNW 9 14 1009.8 - 0.0 - - - - - - -
19/11:00am 13.3 WNW 9 13 1010.0 - 0.0 - - - - - - -
19/10:30am 12.6 WNW 11 19 1009.8 - 0.0 - - - - - - -
19/10:00am 12.4 WNW 9 13 1010.0 - 0.0 - - - - - - -
19/09:30am 13.0 WNW 9 14 1009.7 - 0.0 - - - - - - -
19/09:00am 12.9 WNW 10 17 1009.5 - 0.2 - - - - - - -
19/08:30am 13.1 WNW 12 19 1009.2 - 0.2 - - - - - - -
19/08:00am 11.8 WNW 8 14 1009.0 - 0.2 - - - - - - -
19/07:30am 11.4 WNW 7 13 1009.1 - 0.2 - - - - - - -
19/07:00am 10.9 NW 7 15 1008.9 - 0.2 - - - - - - -
19/06:30am 11.1 WNW 8 13 1009.0 - 0.2 - - - - - - -
19/06:00am 10.5 NW 7 11 1009.0 - 0.2 - - - - - - -
19/05:30am 10.5 NW 8 13 1009.1 - 0.2 - - - - - - -
19/05:00am 10.7 NW 8 12 1009.3 - 0.2 - - - - - - -
19/04:30am 10.7 NW 7 12 1009.4 - 0.2 - - - - - - -
19/04:00am 10.4 NW 8 13 1009.7 - 0.2 - - - - - - -
19/03:30am 10.4 NNW 6 11 1010.0 - 0.2 - - - - - - -
19/03:00am 10.6 NNW 6 8 1010.3 - 0.2 - - - - - - -
19/02:30am 10.7 NW 7 10 1010.6 - 0.2 - - - - - - -
19/02:00am 10.8 NNW 7 10 1011.0 - 0.2 - - - - - - -
19/01:30am 10.9 NW 7 9 1011.2 - 0.2 - - - - - - -
19/01:00am 11.0 NNW 6 8 1011.5 - 0.2 - - - - - - -
19/12:30am 11.4 NW 8 11 1011.5 - 0.2 - - - - - - -
19/12:00am 11.9 WNW 7 11 1011.6 - 0.2 - - - - - - -
 
Date/Time
EDT
Temp
°C
Wind Pressure Rain since
9am
mm
Weather Cloud Vis
km
Sea
Height
m
Swell
Dir  Spd
kts
Gust
kts
hPa Trend Height
m
Period
s
Dir
18/11:30pm 12.1 WNW 5 8 1011.7 - 0.2 - - - - - - -
18/11:00pm 11.9 W 3 6 1011.9 - 0.2 - - - - - - -
18/10:30pm 12.2 WSW 5 7 1012.0 - 0.2 - - - - - - -
18/10:00pm 12.5 W 4 5 1012.2 - 0.2 - - - - - - -
18/09:30pm 13.1 WSW 4 6 1012.3 - 0.2 - - - - - - -
18/09:00pm 13.8 WSW 5 7 1012.0 - 0.2 - - - - - - -
18/08:30pm 14.8 WSW 5 7 1011.6 - 0.2 - - - - - - -
18/08:00pm 15.3 W 6 9 1011.5 - 0.2 - - - - - - -
18/07:30pm 16.4 W 7 12 1011.2 - 0.2 - - - - - - -
18/07:00pm 16.3 SW 10 13 1011.0 - 0.2 - - - - - - -
18/06:30pm 15.9 WSW 12 21 1011.2 - 0.2 - - - - - - -
18/06:00pm 16.2 SW 7 12 1010.8 - 0.2 - - - - - - -
18/05:30pm 17.2 SSW 9 15 1010.4 - 0.2 - - - - - - -
18/05:00pm 17.0 S 9 13 1010.4 - 0.2 - - - - - - -
18/04:30pm 18.8 SW 13 19 1010.7 - 0.2 - - - - - - -
18/04:00pm 18.4 WNW 7 12 1010.5 - 0.2 - - - - - - -
18/03:30pm 16.2 WNW 10 15 1010.9 - 0.2 - - - - - - -
18/03:00pm 18.7 WSW 7 14 1010.9 - 0.0 - - - - - - -
18/02:30pm 17.6 WNW 12 18 1011.2 - 0.0 - - - - - - -
18/02:00pm 18.4 WSW 11 18 1011.3 - 0.0 - - - - - - -
18/01:30pm 18.0 SW 13 18 1011.3 - 0.0 - - - - - - -
18/01:00pm 17.3 SW 13 18 1011.2 - 0.0 - - - - - - -
18/12:30pm 19.4 WSW 10 15 1011.2 - 0.0 - - - - - - -
18/12:00pm 18.1 W 12 20 1011.2 - 0.0 - - - - - - -
18/11:46am 18.8 W 11 21 1011.2 - 0.0 - - - - - - -
18/11:30am 18.1 WSW 7 9 1011.1 - 0.0 - - - - - - -
18/11:00am 16.8 WSW 8 14 1011.5 - 0.0 - - - - - - -
18/10:30am 16.7 WSW 11 16 1011.6 - 0.0 - - - - - - -
18/10:00am 15.9 WSW 9 16 1011.5 - 0.0 - - - - - - -
18/09:30am 15.0 W 10 15 1011.4 - 0.0 - - - - - - -
18/09:00am 14.1 W 7 12 1011.1 - 0.0 - - - - - - -
18/08:30am 13.2 W 8 15 1011.0 - 0.0 - - - - - - -
18/08:00am 11.9 W 7 10 1010.7 - 0.0 - - - - - - -
18/07:30am 11.5 NW 4 7 1010.4 - 0.0 - - - - - - -
18/07:00am 11.6 W 6 8 1010.3 - 0.0 - - - - - - -
18/06:30am 11.8 WNW 6 9 1010.0 - 0.0 - - - - - - -
18/06:00am 11.6 WNW 7 11 1010.0 - 0.0 - - - - - - -
18/05:30am 11.5 NW 4 7 1009.6 - 0.0 - - - - - - -
18/05:00am 12.1 NW 7 9 1009.6 - 0.0 - - - - - - -
18/04:30am 12.1 WNW 3 5 1009.6 - 0.0 - - - - - - -
18/04:00am 11.9 W 4 6 1009.6 - 0.0 - - - - - - -
18/03:30am 12.7 W 4 5 1009.7 - 0.0 - - - - - - -
18/03:00am 13.4 WSW 6 9 1009.6 - 0.0 - - - - - - -
18/02:30am 14.2 WSW 7 10 1009.9 - 0.0 - - - - - - -
18/02:00am 15.0 WSW 6 12 1010.0 - 0.0 - - - - - - -
18/01:30am 14.8 WNW 2 3 1010.3 - 0.0 - - - - - - -
18/01:00am 14.8 WNW 3 5 1010.1 - 0.0 - - - - - - -
18/12:30am 15.0 W 5 7 1010.1 - 0.0 - - - - - - -
18/12:00am 15.4 W 7 10 1010.5 - 0.0 - - - - - - -
 
Date/Time
EDT
Temp
°C
Wind Pressure Rain since
9am
mm
Weather Cloud Vis
km
Sea
Height
m
Swell
Dir  Spd
kts
Gust
kts
hPa Trend Height
m
Period
s
Dir
17/11:30pm 15.1 W 5 8 1010.5 - 0.0 - - - - - - -
17/11:00pm 15.2 WSW 7 9 1010.7 - 0.0 - - - - - - -
17/10:30pm 15.6 WSW 9 13 1010.6 - 0.0 - - - - - - -
17/10:00pm 15.8 WSW 9 13 1010.7 - 0.0 - - - - - - -
17/09:30pm 16.1 WSW 8 11 1010.4 - 0.0 - - - - - - -
17/09:00pm 16.7 WSW 9 14 1010.1 - 0.0 - - - - - - -
17/08:30pm 17.2 WSW 8 13 1009.7 - 0.0 - - - - - - -
17/08:00pm 17.6 WSW 11 15 1009.3 - 0.0 - - - - - - -
17/07:30pm 18.6 S 7 10 1008.6 - 0.0 - - - - - - -
17/07:00pm 18.8 S 12 17 1008.2 - 0.0 - - - - - - -
17/06:30pm 19.0 S 13 17 1008.0 - 0.0 - - - - - - -
17/06:00pm 20.1 S 12 22 1007.6 - 0.0 - - - - - - -
17/05:30pm 24.3 WNW 12 18 1007.0 - 0.0 - - - - - - -
17/05:00pm 25.0 WNW 11 17 1007.1 - 0.0 - - - - - - -
17/04:30pm 23.9 WNW 8 17 1007.1 - 0.0 - - - - - - -
17/04:00pm 24.1 W 11 18 1007.5 - 0.0 - - - - - - -
17/03:30pm 24.2 WNW 11 19 1007.7 - 0.0 - - - - - - -
17/03:00pm 24.7 WNW 11 19 1008.0 - 0.0 - - - - - - -

Other Formats:

Comma delimited format used in spreadsheet applications
http://www.bom.gov.au/fwo/IDV60701/IDV60701.94857.axf

JavaScript Object Notation format (JSON) in row-major order
http://www.bom.gov.au/fwo/IDV60701/IDV60701.94857.json